createdAt,value
2022-08-31T00:02:25.862Z,3.55
2022-08-31T00:04:54.154Z,3.17
2022-08-31T00:07:21.276Z,3.55
2022-08-31T00:09:48.360Z,3.58
2022-08-31T00:12:15.489Z,3.33
2022-08-31T00:14:43.321Z,3.67
2022-08-31T00:17:10.834Z,3.28
2022-08-31T00:19:37.929Z,3.15
2022-08-31T00:22:05.143Z,3.45
2022-08-31T00:24:32.241Z,3.47
2022-08-31T00:26:59.376Z,3.40
2022-08-31T00:29:26.707Z,3.50
2022-08-31T00:31:53.834Z,3.60
2022-08-31T00:34:22.402Z,2.83
2022-08-31T00:36:49.528Z,3.08
2022-08-31T00:39:16.229Z,3.55
2022-08-31T00:41:43.617Z,3.58
2022-08-31T00:44:11.729Z,3.70
2022-08-31T00:46:42.675Z,3.58
2022-08-31T00:49:11.520Z,4.32
2022-08-31T00:51:41.247Z,3.08
2022-08-31T00:54:09.284Z,3.40
2022-08-31T00:56:36.959Z,3.45
2022-08-31T00:59:04.570Z,3.63
2022-08-31T01:01:31.756Z,3.65
2022-08-31T01:03:59.608Z,3.38
2022-08-31T01:06:27.013Z,3.30
2022-08-31T01:08:57.203Z,3.38
2022-08-31T01:11:24.299Z,3.45
2022-08-31T01:13:51.429Z,3.67
2022-08-31T01:16:20.625Z,3.97
2022-08-31T01:18:48.355Z,3.92
2022-08-31T01:21:40.284Z,3.63
2022-08-31T01:24:08.298Z,3.55
2022-08-31T01:26:35.416Z,3.53
2022-08-31T01:29:04.900Z,4.20
2022-08-31T01:31:37.704Z,4.18
2022-08-31T01:34:05.039Z,3.95
2022-08-31T01:36:34.198Z,3.88
2022-08-31T01:39:00.867Z,3.60
2022-08-31T01:41:27.673Z,2.78
2022-08-31T01:43:54.724Z,3.15
2022-08-31T01:46:22.355Z,3.58
2022-08-31T01:48:50.597Z,3.70
2022-08-31T01:51:20.816Z,3.38
2022-08-31T01:53:50.872Z,3.70
2022-08-31T01:56:20.356Z,3.88
2022-08-31T01:58:47.475Z,3.42
2022-08-31T02:01:32.731Z,3.85
2022-08-31T02:04:00.683Z,3.50
2022-08-31T02:06:27.736Z,3.78
2022-08-31T02:08:54.388Z,3.25
2022-08-31T02:11:21.025Z,3.60
2022-08-31T02:13:48.099Z,2.70
2022-08-31T02:16:15.260Z,3.17
2022-08-31T02:18:42.384Z,2.25
2022-08-31T02:21:09.459Z,2.50
2022-08-31T02:23:36.104Z,2.97
2022-08-31T02:26:02.813Z,2.88
2022-08-31T02:28:29.573Z,3.20
2022-08-31T02:30:56.346Z,2.90
2022-08-31T02:33:24.997Z,2.60
2022-08-31T02:35:53.791Z,3.10
2022-08-31T02:38:22.940Z,2.92
2022-08-31T02:40:51.232Z,3.40
2022-08-31T02:43:21.139Z,3.65
2022-08-31T02:45:53.717Z,3.50
2022-08-31T02:48:21.581Z,3.33
2022-08-31T02:50:49.899Z,3.47
2022-08-31T02:53:19.613Z,3.38
2022-08-31T02:55:46.828Z,3.35
2022-08-31T02:58:14.352Z,4.00
2022-08-31T03:00:44.575Z,3.53
2022-08-31T03:03:11.573Z,4.10
2022-08-31T03:05:38.801Z,3.55
2022-08-31T03:08:05.686Z,3.30
2022-08-31T03:10:32.502Z,4.03
2022-08-31T03:12:59.720Z,4.10
2022-08-31T03:15:27.362Z,3.33
2022-08-31T03:17:54.687Z,3.97
2022-08-31T03:20:22.842Z,3.53
2022-08-31T03:22:50.699Z,3.33
2022-08-31T03:25:19.936Z,3.88
2022-08-31T03:27:47.065Z,3.75
2022-08-31T03:30:16.497Z,4.50
2022-08-31T03:32:45.399Z,3.63
2022-08-31T03:35:13.153Z,4.03
2022-08-31T03:37:40.291Z,3.75
2022-08-31T03:40:08.357Z,3.95
2022-08-31T03:42:35.655Z,4.38
2022-08-31T03:45:02.500Z,4.00
2022-08-31T03:47:29.166Z,3.97
2022-08-31T03:49:58.100Z,4.22
2022-08-31T03:52:25.165Z,3.78
2022-08-31T03:54:53.079Z,3.83
2022-08-31T03:57:19.741Z,3.60
2022-08-31T03:59:46.396Z,3.75
2022-08-31T04:02:13.515Z,3.65
2022-08-31T04:04:40.210Z,4.05
2022-08-31T04:07:07.286Z,3.45
2022-08-31T04:09:33.960Z,3.80
2022-08-31T04:12:00.598Z,3.30
2022-08-31T04:14:27.648Z,4.50
2022-08-31T04:16:54.712Z,3.92
2022-08-31T04:19:22.322Z,4.45
2022-08-31T04:21:50.108Z,4.47
2022-08-31T04:24:16.759Z,3.95
2022-08-31T04:26:43.495Z,3.95
2022-08-31T04:29:13.385Z,3.95
2022-08-31T04:31:41.236Z,4.03
2022-08-31T04:34:07.995Z,4.13
2022-08-31T04:36:35.479Z,4.30
2022-08-31T04:39:04.276Z,4.00
2022-08-31T04:41:32.667Z,4.22
2022-08-31T04:44:01.167Z,3.85
2022-08-31T04:46:29.240Z,4.57
2022-08-31T04:48:57.112Z,3.97
2022-08-31T04:51:25.611Z,4.50
2022-08-31T04:53:53.124Z,4.13
2022-08-31T04:56:24.401Z,4.43
2022-08-31T04:58:53.146Z,4.63
2022-08-31T05:01:21.837Z,4.63
2022-08-31T05:03:53.364Z,4.35
2022-08-31T05:06:22.219Z,5.22
2022-08-31T05:08:53.053Z,4.80
2022-08-31T05:11:24.874Z,5.03
2022-08-31T05:13:53.009Z,4.63
2022-08-31T05:16:20.479Z,4.88
2022-08-31T05:18:49.032Z,4.55
2022-08-31T05:21:17.691Z,4.25
2022-08-31T05:23:47.303Z,4.53
2022-08-31T05:26:26.012Z,4.15
2022-08-31T05:28:54.332Z,4.68
2022-08-31T05:31:21.659Z,4.72
2022-08-31T05:33:48.848Z,4.22
2022-08-31T05:36:15.781Z,4.57
2022-08-31T05:38:43.282Z,5.20
2022-08-31T05:41:10.678Z,4.68
2022-08-31T05:43:38.188Z,4.13
2022-08-31T05:46:10.409Z,4.45
2022-08-31T05:48:38.007Z,4.68
2022-08-31T05:51:07.076Z,5.07
2022-08-31T05:53:34.957Z,4.93
2022-08-31T05:56:03.390Z,4.43
2022-08-31T05:58:31.035Z,5.38
2022-08-31T06:00:58.018Z,4.72
2022-08-31T06:03:25.396Z,5.00
2022-08-31T06:05:53.111Z,4.30
2022-08-31T06:08:27.003Z,4.43
2022-08-31T06:10:58.404Z,4.35
2022-08-31T06:13:26.273Z,4.82
2022-08-31T06:15:53.492Z,3.88
2022-08-31T06:18:23.419Z,3.50
2022-08-31T06:20:50.081Z,4.50
2022-08-31T06:23:17.753Z,4.35
2022-08-31T06:25:44.994Z,4.50
2022-08-31T06:28:15.332Z,5.88
2022-08-31T06:30:54.722Z,5.20
2022-08-31T06:33:22.962Z,4.75
2022-08-31T06:35:50.023Z,5.32
2022-08-31T06:38:17.175Z,5.20
2022-08-31T06:40:43.838Z,5.32
2022-08-31T06:43:10.525Z,5.63
2022-08-31T06:45:37.154Z,5.25
2022-08-31T06:48:04.453Z,5.32
2022-08-31T06:50:31.181Z,5.68
2022-08-31T06:52:58.270Z,6.07
2022-08-31T06:55:25.039Z,5.20
2022-08-31T06:57:51.708Z,5.80
2022-08-31T07:00:18.562Z,5.60
2022-08-31T07:02:45.650Z,5.32
2022-08-31T07:05:24.681Z,5.55
2022-08-31T07:07:51.965Z,6.00
2022-08-31T07:10:19.447Z,5.57
2022-08-31T07:12:46.501Z,5.15
2022-08-31T07:15:13.640Z,5.47
2022-08-31T07:17:40.745Z,5.93
2022-08-31T07:20:08.181Z,5.35
2022-08-31T07:22:35.299Z,6.18
2022-08-31T07:25:02.402Z,5.97
2022-08-31T07:27:30.124Z,5.65
2022-08-31T07:30:00.207Z,5.57
2022-08-31T07:32:27.355Z,5.88
2022-08-31T07:34:59.706Z,5.35
2022-08-31T07:37:45.837Z,5.35
2022-08-31T07:40:31.288Z,5.22
2022-08-31T07:43:04.610Z,5.35
2022-08-31T07:45:35.618Z,5.18
2022-08-31T07:48:04.848Z,4.28
2022-08-31T07:50:31.899Z,4.90
2022-08-31T07:53:00.266Z,5.03
2022-08-31T07:55:29.077Z,5.60
2022-08-31T07:57:56.393Z,4.40
2022-08-31T08:00:25.047Z,4.40
2022-08-31T08:02:53.397Z,4.70
2022-08-31T08:05:27.565Z,4.75
2022-08-31T08:07:58.623Z,4.75
2022-08-31T08:10:26.215Z,4.93
2022-08-31T08:13:05.236Z,4.75
2022-08-31T08:15:35.814Z,5.00
2022-08-31T08:18:04.344Z,4.45
2022-08-31T08:20:35.253Z,4.18
2022-08-31T08:23:13.882Z,4.68
2022-08-31T08:25:43.184Z,4.47
2022-08-31T08:28:35.496Z,4.90
2022-08-31T08:31:01.350Z,4.63
2022-08-31T08:33:29.650Z,4.72
2022-08-31T08:35:58.234Z,4.82
2022-08-31T08:38:30.870Z,4.53
2022-08-31T08:40:59.445Z,5.00
2022-08-31T08:43:31.159Z,5.70
2022-08-31T08:46:06.714Z,5.05
2022-08-31T08:48:44.687Z,4.72
2022-08-31T08:51:16.349Z,4.35
2022-08-31T08:53:45.489Z,4.55
2022-08-31T08:56:32.421Z,4.55
2022-08-31T08:59:00.786Z,4.18
2022-08-31T09:01:29.137Z,4.53
2022-08-31T09:04:02.348Z,4.35
2022-08-31T09:06:32.266Z,4.30
2022-08-31T09:09:18.045Z,4.30
2022-08-31T09:11:56.555Z,4.68
2022-08-31T09:14:58.992Z,4.53
2022-08-31T09:18:01.004Z,3.88
2022-08-31T09:20:28.357Z,4.63
2022-08-31T09:22:57.167Z,5.18
2022-08-31T09:25:32.624Z,4.45
2022-08-31T09:28:03.473Z,4.07
2022-08-31T09:30:45.265Z,3.97
2022-08-31T09:33:29.313Z,4.10
2022-08-31T09:36:14.535Z,4.22
2022-08-31T09:38:42.072Z,4.55
2022-08-31T09:41:28.133Z,3.75
2022-08-31T09:44:15.984Z,4.07
2022-08-31T09:46:50.983Z,4.90
2022-08-31T09:49:26.673Z,3.70
2022-08-31T09:51:54.851Z,3.72
2022-08-31T09:54:46.806Z,4.40
2022-08-31T09:57:14.106Z,4.07
2022-08-31T09:59:44.442Z,4.47
2022-08-31T10:02:26.796Z,4.30
2022-08-31T10:05:06.696Z,5.30
2022-08-31T10:07:43.924Z,5.75
2022-08-31T10:10:31.797Z,5.00
2022-08-31T10:13:08.116Z,5.10
2022-08-31T10:15:52.989Z,5.22
2022-08-31T10:18:29.109Z,5.47
2022-08-31T10:20:59.576Z,5.60
2022-08-31T10:23:37.836Z,5.57
2022-08-31T10:26:18.235Z,5.45
2022-08-31T10:28:53.009Z,5.78
2022-08-31T10:31:23.747Z,5.18
2022-08-31T10:34:37.562Z,5.93
2022-08-31T10:37:17.185Z,6.63
2022-08-31T10:39:48.327Z,6.47
2022-08-31T10:42:21.228Z,6.25
2022-08-31T10:44:58.524Z,6.22
2022-08-31T10:47:33.963Z,6.25
2022-08-31T10:50:04.954Z,6.05
2022-08-31T10:52:46.145Z,6.30
2022-08-31T10:55:13.198Z,5.85
2022-08-31T10:57:54.714Z,6.45
2022-08-31T11:00:44.839Z,6.30
2022-08-31T11:03:11.500Z,5.38
2022-08-31T11:06:01.695Z,4.90
2022-08-31T11:08:48.926Z,6.15
2022-08-31T11:11:42.407Z,6.30
2022-08-31T11:14:19.209Z,6.25
2022-08-31T11:17:12.117Z,5.88
2022-08-31T11:19:59.984Z,5.28
2022-08-31T11:22:50.828Z,5.07
2022-08-31T11:25:30.124Z,5.25
2022-08-31T11:28:07.023Z,5.43
2022-08-31T11:30:41.896Z,4.47
2022-08-31T11:33:20.251Z,5.15
2022-08-31T11:35:49.856Z,5.55
2022-08-31T11:38:36.009Z,5.82
2022-08-31T11:41:05.959Z,4.85
2022-08-31T11:43:32.533Z,4.47
2022-08-31T11:46:26.423Z,4.50
2022-08-31T11:48:53.895Z,4.22
2022-08-31T11:51:36.241Z,4.25
2022-08-31T11:54:05.865Z,3.83
2022-08-31T11:56:32.933Z,4.07
2022-08-31T11:59:19.804Z,4.03
2022-08-31T12:01:46.885Z,3.78
2022-08-31T12:04:36.875Z,3.95
2022-08-31T12:07:05.274Z,3.30
2022-08-31T12:09:59.438Z,3.28
2022-08-31T12:12:33.210Z,3.20
2022-08-31T12:15:00.271Z,4.38
2022-08-31T12:17:44.305Z,4.25
2022-08-31T12:20:12.565Z,3.92
2022-08-31T12:23:10.143Z,3.53
2022-08-31T12:25:41.367Z,4.03
2022-08-31T12:28:08.458Z,4.25
2022-08-31T12:30:35.702Z,5.00
2022-08-31T12:33:08.925Z,4.75
2022-08-31T12:35:37.526Z,3.78
2022-08-31T12:38:07.264Z,3.60
2022-08-31T12:40:41.262Z,3.90
2022-08-31T12:43:10.845Z,3.30
2022-08-31T12:46:11.755Z,3.67
2022-08-31T12:48:45.509Z,3.67
2022-08-31T12:51:22.764Z,3.80
2022-08-31T12:53:59.193Z,4.47
2022-08-31T12:56:33.232Z,4.22
2022-08-31T12:59:16.891Z,4.05
2022-08-31T13:01:47.600Z,3.63
2022-08-31T13:04:19.424Z,3.70
2022-08-31T13:06:48.302Z,3.95
2022-08-31T13:09:30.431Z,4.55
2022-08-31T13:11:59.089Z,4.22
2022-08-31T13:14:29.357Z,4.22
2022-08-31T13:17:05.487Z,5.00
2022-08-31T13:19:33.571Z,3.95
2022-08-31T13:22:08.712Z,4.53
2022-08-31T13:24:41.518Z,4.18
2022-08-31T13:27:10.273Z,3.45
2022-08-31T13:29:44.174Z,4.40
2022-08-31T13:32:14.057Z,4.90
2022-08-31T13:34:43.857Z,5.45
2022-08-31T13:37:23.973Z,5.00
2022-08-31T13:39:51.159Z,4.20
2022-08-31T13:42:23.525Z,4.45
2022-08-31T13:44:55.716Z,5.10
2022-08-31T13:47:24.386Z,4.43
2022-08-31T13:49:58.586Z,5.07
2022-08-31T13:52:27.979Z,4.93
2022-08-31T13:55:03.164Z,4.88
2022-08-31T13:57:32.874Z,4.90
2022-08-31T14:00:23.604Z,5.20
2022-08-31T14:02:50.399Z,5.35
2022-08-31T14:05:29.763Z,5.60
2022-08-31T14:07:58.979Z,5.13
2022-08-31T14:10:30.706Z,5.15
2022-08-31T14:12:57.850Z,5.70
2022-08-31T14:15:33.425Z,5.90
2022-08-31T14:18:25.968Z,5.45
2022-08-31T14:21:27.173Z,5.22
2022-08-31T14:24:05.349Z,5.70
2022-08-31T14:26:37.833Z,5.80
2022-08-31T14:29:10.222Z,5.00
2022-08-31T14:31:45.409Z,5.13
2022-08-31T14:34:22.853Z,6.28
2022-08-31T14:36:55.110Z,4.82
2022-08-31T14:39:24.276Z,4.68
2022-08-31T14:41:53.095Z,5.07
2022-08-31T14:44:24.112Z,5.13
2022-08-31T14:46:50.903Z,4.47
2022-08-31T14:49:17.567Z,4.63
2022-08-31T14:51:44.777Z,4.90
2022-08-31T14:54:12.144Z,5.32
2022-08-31T14:56:45.349Z,4.82
2022-08-31T14:59:13.938Z,5.07
2022-08-31T15:01:44.367Z,5.13
2022-08-31T15:04:15.949Z,5.32
2022-08-31T15:06:43.384Z,5.10
2022-08-31T15:09:14.278Z,4.90
2022-08-31T15:11:42.787Z,5.43
2022-08-31T15:14:12.404Z,4.78
2022-08-31T15:16:41.505Z,5.35
2022-08-31T15:19:12.051Z,5.13
2022-08-31T15:21:52.521Z,5.88
2022-08-31T15:24:25.477Z,6.03
2022-08-31T15:26:54.230Z,5.50
2022-08-31T15:29:24.675Z,5.90
2022-08-31T15:31:54.765Z,5.65
2022-08-31T15:34:26.761Z,5.53
2022-08-31T15:36:56.276Z,5.93
2022-08-31T15:39:28.437Z,6.28
2022-08-31T15:41:55.189Z,6.50
2022-08-31T15:44:21.865Z,5.80
2022-08-31T15:47:07.704Z,6.28
2022-08-31T15:49:37.013Z,6.60
2022-08-31T15:52:09.422Z,5.97
2022-08-31T15:54:37.575Z,5.90
2022-08-31T15:57:06.159Z,5.90
2022-08-31T15:59:35.408Z,5.65
2022-08-31T16:02:03.085Z,6.00
2022-08-31T16:04:30.204Z,5.57
2022-08-31T16:06:59.278Z,5.32
2022-08-31T16:09:26.028Z,6.10
2022-08-31T16:11:53.163Z,5.53
2022-08-31T16:14:20.501Z,6.13
2022-08-31T16:16:48.793Z,5.53
2022-08-31T16:19:34.084Z,4.72
2022-08-31T16:22:03.007Z,4.18
2022-08-31T16:24:35.131Z,3.90
2022-08-31T16:27:02.575Z,4.05
2022-08-31T16:29:32.349Z,3.88
2022-08-31T16:31:59.181Z,4.95
2022-08-31T16:34:26.485Z,4.20
2022-08-31T16:36:54.009Z,3.67
2022-08-31T16:39:24.359Z,3.40
2022-08-31T16:41:53.086Z,3.28
2022-08-31T16:44:20.433Z,3.60
2022-08-31T16:46:47.768Z,3.35
2022-08-31T16:49:33.533Z,2.58
2022-08-31T16:52:03.433Z,2.47
2022-08-31T16:54:30.824Z,2.97
2022-08-31T16:56:57.782Z,3.00
2022-08-31T16:59:29.304Z,2.58
2022-08-31T17:01:56.470Z,2.92
2022-08-31T17:04:50.345Z,2.80
2022-08-31T17:07:13.960Z,2.47
2022-08-31T17:09:41.091Z,3.15
2022-08-31T17:12:12.088Z,2.78
2022-08-31T17:14:48.323Z,2.60
2022-08-31T17:17:18.845Z,2.85
2022-08-31T17:19:46.520Z,2.70
2022-08-31T17:22:21.408Z,2.55
2022-08-31T17:24:49.633Z,23.45
2022-08-31T17:27:19.418Z,12.05
2022-08-31T17:29:48.229Z,5.30
2022-08-31T17:32:18.922Z,3.53
2022-08-31T17:34:49.561Z,2.70
2022-08-31T17:37:16.717Z,2.50
2022-08-31T17:39:44.781Z,3.53
2022-08-31T17:42:15.207Z,3.17
2022-08-31T17:44:44.843Z,3.00
2022-08-31T17:47:12.360Z,3.92
2022-08-31T17:49:43.234Z,2.92
2022-08-31T17:52:13.090Z,3.17
2022-08-31T17:54:43.043Z,3.38
2022-08-31T17:57:13.462Z,3.03
2022-08-31T17:59:43.298Z,3.25
2022-08-31T18:02:26.489Z,2.83
2022-08-31T18:04:53.828Z,2.58
2022-08-31T18:07:20.839Z,3.22
2022-08-31T18:09:48.039Z,2.90
2022-08-31T18:12:16.520Z,3.63
2022-08-31T18:14:44.102Z,3.70
2022-08-31T18:17:13.872Z,4.90
2022-08-31T18:19:40.630Z,3.70
2022-08-31T18:22:07.798Z,4.05
2022-08-31T18:24:36.088Z,3.88
2022-08-31T18:27:04.439Z,3.80
2022-08-31T18:29:33.191Z,3.63
2022-08-31T18:32:04.119Z,3.92
2022-08-31T18:34:33.335Z,3.92
2022-08-31T18:37:00.772Z,3.78
2022-08-31T18:39:50.539Z,4.40
2022-08-31T18:42:37.289Z,4.15
2022-08-31T18:45:19.801Z,3.97
2022-08-31T18:48:01.881Z,3.72
2022-08-31T18:50:37.301Z,3.90
2022-08-31T18:53:08.338Z,3.95
2022-08-31T18:55:42.470Z,3.85
2022-08-31T18:58:09.702Z,5.00
2022-08-31T19:00:36.636Z,5.25
2022-08-31T19:03:03.805Z,5.32
2022-08-31T19:05:32.535Z,3.67
2022-08-31T19:08:00.552Z,4.20
2022-08-31T19:10:28.673Z,4.35
2022-08-31T19:12:55.875Z,4.10
2022-08-31T19:15:25.446Z,4.20
2022-08-31T19:18:02.593Z,4.63
2022-08-31T19:20:30.422Z,4.82
2022-08-31T19:22:57.292Z,4.45
2022-08-31T19:25:24.626Z,5.03
2022-08-31T19:27:52.024Z,5.25
2022-08-31T19:30:24.435Z,5.35
2022-08-31T19:32:54.405Z,5.45
2022-08-31T19:35:22.360Z,4.32
2022-08-31T19:37:51.893Z,4.63
2022-08-31T19:40:19.417Z,4.72
2022-08-31T19:43:43.562Z,4.80
2022-08-31T19:45:43.709Z,5.13
2022-08-31T19:48:12.505Z,5.13
2022-08-31T19:50:42.101Z,5.45
2022-08-31T19:53:12.102Z,4.55
2022-08-31T19:55:50.003Z,5.00
2022-08-31T19:58:18.910Z,5.07
2022-08-31T20:00:48.424Z,5.55
2022-08-31T20:03:17.508Z,5.22
2022-08-31T20:05:44.683Z,6.07
2022-08-31T20:08:12.314Z,5.32
2022-08-31T20:10:44.140Z,6.32
2022-08-31T20:13:12.537Z,5.95
2022-08-31T20:15:41.104Z,6.05
2022-08-31T20:18:09.368Z,6.05
2022-08-31T20:20:45.237Z,7.82
2022-08-31T20:23:16.674Z,5.72
2022-08-31T20:25:45.064Z,6.05
2022-08-31T20:28:12.998Z,7.03
2022-08-31T20:30:41.667Z,7.00
2022-08-31T20:33:09.638Z,5.78
2022-08-31T20:35:41.484Z,5.70
2022-08-31T20:38:11.957Z,5.22
2022-08-31T20:40:39.562Z,5.32
2022-08-31T20:43:11.635Z,7.13
2022-08-31T20:45:39.629Z,5.53
2022-08-31T20:48:25.828Z,4.75
2022-08-31T20:50:52.967Z,5.47
2022-08-31T20:53:42.228Z,5.45
2022-08-31T20:56:08.991Z,6.35
2022-08-31T20:58:36.098Z,6.65
2022-08-31T21:01:07.973Z,6.35
2022-08-31T21:03:35.258Z,5.93
2022-08-31T21:06:11.177Z,5.95
2022-08-31T21:08:39.160Z,5.82
2022-08-31T21:11:12.949Z,5.75
2022-08-31T21:13:39.704Z,6.35
2022-08-31T21:16:06.898Z,5.90
2022-08-31T21:18:34.813Z,5.93
2022-08-31T21:21:09.590Z,5.65
2022-08-31T21:23:37.494Z,5.53
2022-08-31T21:26:08.481Z,5.45
2022-08-31T21:28:38.490Z,5.03
2022-08-31T21:31:15.802Z,5.40
2022-08-31T21:33:46.441Z,5.38
2022-08-31T21:36:15.405Z,5.60
2022-08-31T21:38:43.591Z,5.45
2022-08-31T21:41:11.199Z,5.38
2022-08-31T21:43:37.881Z,5.07
2022-08-31T21:46:08.106Z,5.07
2022-08-31T21:48:36.153Z,4.53
2022-08-31T21:51:11.953Z,5.13
2022-08-31T21:53:39.800Z,5.75
2022-08-31T21:56:06.891Z,5.65
2022-08-31T21:58:33.772Z,5.40
2022-08-31T22:01:01.462Z,5.00
2022-08-31T22:03:35.149Z,5.35
2022-08-31T22:06:09.653Z,5.43
2022-08-31T22:08:37.297Z,5.25
2022-08-31T22:11:14.321Z,5.93
2022-08-31T22:13:43.930Z,5.47
2022-08-31T22:16:15.159Z,5.75
2022-08-31T22:19:06.425Z,5.07
2022-08-31T22:21:35.120Z,6.43
2022-08-31T22:24:07.628Z,6.07
2022-08-31T22:26:37.624Z,6.07
2022-08-31T22:29:06.174Z,6.05
2022-08-31T22:31:36.569Z,5.72
2022-08-31T22:34:04.900Z,6.15
2022-08-31T22:36:32.650Z,5.53
2022-08-31T22:39:06.118Z,4.85
2022-08-31T22:41:33.698Z,4.97
2022-08-31T22:44:01.122Z,5.55
2022-08-31T22:46:28.378Z,5.82
2022-08-31T22:48:57.018Z,5.97
2022-08-31T22:51:24.071Z,6.07
2022-08-31T22:53:51.642Z,5.75
2022-08-31T22:56:26.202Z,5.57
2022-08-31T22:58:55.045Z,4.90
2022-08-31T23:01:31.224Z,5.60
2022-08-31T23:04:00.644Z,5.80
2022-08-31T23:06:29.948Z,5.63
2022-08-31T23:08:57.530Z,5.35
2022-08-31T23:11:25.131Z,6.18
2022-08-31T23:13:57.447Z,5.80
2022-08-31T23:16:33.328Z,5.63
2022-08-31T23:19:11.232Z,5.38
2022-08-31T23:21:43.050Z,5.40
2022-08-31T23:24:10.207Z,6.28
2022-08-31T23:26:38.809Z,5.82
2022-08-31T23:29:06.325Z,6.00
2022-08-31T23:31:34.002Z,5.75
2022-08-31T23:34:04.725Z,5.57
2022-08-31T23:36:31.701Z,5.45
2022-08-31T23:39:01.560Z,6.47
2022-08-31T23:41:29.555Z,6.40
2022-08-31T23:43:58.791Z,5.75
2022-08-31T23:46:26.090Z,6.18
2022-08-31T23:48:53.776Z,6.45
2022-08-31T23:51:23.367Z,6.45
2022-08-31T23:53:55.266Z,6.88
2022-08-31T23:56:27.489Z,6.57
2022-08-31T23:58:54.561Z,6.68
